.
WxDataArchive / Data Records for 2013-05-10
2013-05-09 May 2013 2013-05-11

Data Records for Friday, 10 May 2013

Time	Temp	Chill	HIndex	Humid	Dewpt	 Wind 	HiWind	WindDir	Rain 	Barom 
-----	----	-----	------	-----	-----	------	------	-------	-----	----- 
00:00	61.8	61.8	61.8	87	57.9	0	1	248	0.00	29.892 
00:05	61.6	61.6	61.6	88	58.0	0	1	248	0.00	29.892 
00:10	61.5	61.5	61.5	88	57.9	0	1	248	0.00	29.892 
00:15	61.3	61.3	61.3	88	57.7	0	2	248	0.01	29.886 
00:20	61.2	61.2	61.2	88	57.6	0	1	248	0.00	29.886 
00:25	61.2	61.2	61.2	88	57.6	0	0	---	0.00	29.886 
00:30	61.0	61.0	61.0	89	57.7	0	1	248	0.00	29.883 
00:35	61.0	61.0	61.0	89	57.7	0	1	248	0.01	29.883 
00:40	61.0	61.0	61.0	89	57.7	0	1	248	0.01	29.883 
00:45	60.9	60.9	60.9	89	57.6	0	1	248	0.01	29.878 
00:50	60.7	60.7	60.7	90	57.7	0	1	248	0.01	29.878 
00:55	60.7	60.7	60.7	90	57.7	0	1	248	0.01	29.878 
01:00	60.7	60.7	60.7	90	57.7	0	0	---	0.01	29.864 
01:05	60.5	60.5	60.5	91	57.9	0	1	248	0.00	29.864 
01:10	60.4	60.4	60.4	91	57.8	0	1	248	0.00	29.864 
01:15	60.2	60.2	60.2	91	57.6	0	1	248	0.01	29.856 
01:20	60.2	60.2	60.2	91	57.6	0	2	248	0.00	29.856 
01:25	60.2	60.2	60.2	92	57.9	0	4	248	0.00	29.856 
01:30	60.1	60.1	60.1	92	57.8	1	4	68	0.01	29.846 
01:35	60.1	60.1	60.1	92	57.8	0	2	135	0.00	29.846 
01:40	60.1	60.1	60.1	92	57.8	0	2	135	0.01	29.846 
01:45	59.9	59.9	59.9	92	57.6	1	2	135	0.01	29.831 
01:50	59.9	59.9	59.9	92	57.6	0	5	135	0.02	29.831 
01:55	59.9	59.9	59.9	92	57.6	0	1	90	0.00	29.831 
02:00	59.9	59.9	59.9	92	57.6	0	2	90	0.00	29.821 
02:05	59.9	59.9	59.9	93	57.9	1	3	90	0.00	29.821 
02:10	59.9	59.9	59.9	93	57.9	2	4	112	0.00	29.821 
02:15	59.9	59.9	59.9	93	57.9	1	3	112	0.01	29.815 
02:20	60.1	60.1	60.1	93	58.1	0	3	248	0.00	29.815 
02:25	60.1	60.1	60.1	93	58.1	0	2	248	0.00	29.815 
02:30	60.1	60.1	60.1	93	58.1	0	2	248	0.00	29.812 
02:35	60.2	60.2	60.2	93	58.2	1	8	112	0.00	29.812 
02:40	60.2	60.2	60.2	93	58.2	1	4	90	0.00	29.812 
02:45	60.4	60.4	60.4	93	58.4	2	5	90	0.00	29.799 
02:50	60.5	60.5	60.5	93	58.5	1	4	270	0.00	29.799 
02:55	60.7	60.7	60.7	93	58.7	0	3	112	0.00	29.799 
03:00	60.7	60.7	60.7	93	58.7	0	2	112	0.00	29.800 
03:05	60.9	60.9	60.9	93	58.9	1	4	270	0.00	29.800 
03:10	61.0	61.0	61.0	93	59.0	1	4	292	0.00	29.800 
03:15	61.2	61.2	61.2	93	59.2	1	5	270	0.00	29.798 
03:20	61.2	61.2	61.2	93	59.2	1	6	270	0.00	29.798 
03:25	61.3	61.3	61.3	93	59.3	1	4	270	0.00	29.798 
03:30	61.3	61.3	61.3	93	59.3	1	5	270	0.00	29.795 
03:35	61.5	61.5	61.5	93	59.5	0	3	248	0.00	29.795 
03:40	61.5	61.5	61.5	93	59.5	1	4	248	0.00	29.795 
03:45	61.5	61.5	61.5	93	59.5	0	3	248	0.00	29.791 
03:50	61.5	61.5	61.5	93	59.5	0	2	248	0.00	29.791 
03:55	61.5	61.5	61.5	93	59.5	0	4	248	0.00	29.791 
04:00	61.5	61.5	61.5	92	59.2	1	4	315	0.00	29.795 
04:05	61.5	61.5	61.5	92	59.2	1	5	248	0.00	29.795 
04:10	61.5	61.5	61.5	92	59.2	1	6	248	0.00	29.795 
04:15	61.5	61.5	61.5	92	59.2	1	4	248	0.00	29.798 
04:20	61.6	61.6	61.6	92	59.2	0	2	315	0.00	29.798 
04:25	61.6	61.6	61.6	92	59.2	0	2	270	0.00	29.798 
04:30	61.6	61.6	61.6	92	59.2	0	1	270	0.00	29.796 
04:35	61.5	61.5	61.5	92	59.2	1	3	270	0.00	29.796 
04:40	61.6	61.6	61.6	92	59.2	1	3	248	0.00	29.796 
04:45	61.6	61.6	61.6	92	59.2	0	3	248	0.00	29.796 
04:50	61.6	61.6	61.6	92	59.2	0	3	248	0.00	29.796 
04:55	61.6	61.6	61.6	92	59.2	0	4	248	0.00	29.796 
05:00	61.6	61.6	61.6	92	59.2	1	4	248	0.00	29.796 
05:05	61.6	61.6	61.6	92	59.2	0	3	248	0.00	29.796 
05:10	61.5	61.5	61.5	92	59.2	0	2	292	0.00	29.796 
05:15	61.5	61.5	61.5	92	59.2	0	2	292	0.00	29.792 
05:20	61.5	61.5	61.5	92	59.2	0	3	248	0.00	29.792 
05:25	61.3	61.3	61.3	92	59.0	0	2	248	0.00	29.792 
05:30	61.3	61.3	61.3	92	59.0	0	2	248	0.00	29.787 
05:35	61.3	61.3	61.3	92	59.0	0	1	248	0.00	29.787 
05:40	61.2	61.2	61.2	92	58.9	0	1	248	0.00	29.787 
05:45	61.0	61.0	61.0	92	58.7	0	1	248	0.00	29.787 
05:50	61.0	61.0	61.0	92	58.7	0	1	248	0.00	29.787 
05:55	60.9	60.9	60.9	92	58.6	0	1	248	0.00	29.787 
06:00	60.9	60.9	60.9	92	58.6	0	0	---	0.00	29.781 
06:05	60.7	60.7	60.7	92	58.4	0	1	248	0.00	29.781 
06:10	60.5	60.5	60.5	92	58.2	0	0	---	0.00	29.781 
06:15	60.4	60.4	60.4	92	58.1	0	1	248	0.00	29.780 
06:20	60.2	60.2	60.2	92	57.9	0	2	248	0.00	29.780 
06:25	60.2	60.2	60.2	92	57.9	0	1	248	0.00	29.780 
06:30	60.2	60.2	60.2	92	57.9	0	1	248	0.00	29.775 
06:35	60.1	60.1	60.1	92	57.8	0	2	248	0.00	29.775 
06:40	60.1	60.1	60.1	92	57.8	0	1	248	0.00	29.775 
06:45	60.1	60.1	60.1	92	57.8	0	2	248	0.00	29.781 
06:50	60.1	60.1	60.1	92	57.8	0	0	---	0.00	29.781 
06:55	60.1	60.1	60.1	92	57.8	0	1	248	0.00	29.781 
07:00	60.2	60.2	60.2	92	57.9	0	1	248	0.00	29.787 
07:05	60.2	60.2	60.2	92	57.9	0	3	248	0.00	29.787 
07:10	60.4	60.4	60.4	92	58.1	0	1	248	0.00	29.787 
07:15	60.4	60.4	60.4	92	58.1	0	2	248	0.00	29.791 
07:20	60.5	60.5	60.5	92	58.2	0	2	248	0.00	29.791 
07:25	60.7	60.7	60.7	92	58.4	0	2	248	0.00	29.791 
07:30	60.7	60.7	60.7	92	58.4	0	2	158	0.00	29.790 
07:35	60.9	60.9	60.9	92	58.6	0	2	180	0.00	29.790 
07:40	61.0	61.0	61.0	92	58.7	0	3	248	0.00	29.790 
07:45	61.2	61.2	61.2	92	58.9	0	2	248	0.00	29.790 
07:50	61.3	61.3	61.3	91	58.6	0	1	248	0.00	29.790 
07:55	61.5	61.5	61.5	91	58.8	1	2	248	0.00	29.790 
08:00	61.8	61.8	61.8	91	59.1	0	2	248	0.00	29.795 
08:05	62.0	62.0	62.0	90	59.0	0	3	248	0.00	29.795 
08:10	62.1	62.1	62.1	90	59.1	0	3	248	0.00	29.795 
08:15	62.3	62.3	62.3	89	59.0	0	3	248	0.00	29.794 
08:20	62.4	62.4	62.4	89	59.1	0	2	248	0.00	29.794 
08:25	62.6	62.6	62.6	89	59.3	0	2	248	0.00	29.794 
08:30	62.7	62.7	62.7	88	59.1	1	5	45	0.00	29.794 
08:35	62.9	62.9	62.9	88	59.3	0	3	0	0.00	29.794 
08:40	62.9	62.9	62.9	88	59.3	0	2	270	0.00	29.794 
08:45	63.1	63.1	63.1	88	59.5	0	2	270	0.00	29.791 
08:50	63.2	63.2	63.2	88	59.6	0	2	292	0.00	29.791 
08:55	63.4	63.4	63.4	87	59.5	1	3	270	0.00	29.791 
09:00	63.5	63.5	63.5	87	59.6	1	2	270	0.00	29.792 
09:05	63.7	63.7	63.7	86	59.4	0	2	270	0.00	29.792 
09:10	63.7	63.7	63.7	86	59.4	1	3	270	0.00	29.792 
09:15	63.7	63.7	63.7	85	59.1	1	4	248	0.00	29.798 
09:20	63.7	63.7	63.7	85	59.1	0	3	248	0.00	29.798 
09:25	63.9	63.9	63.9	85	59.3	0	2	248	0.00	29.798 
09:30	64.0	64.0	64.0	85	59.4	0	4	248	0.00	29.792 
09:35	64.2	64.2	64.2	83	58.9	2	3	248	0.00	29.792 
09:40	64.5	64.5	64.5	83	59.2	1	4	248	0.00	29.792 
09:45	64.8	64.8	64.8	82	59.2	1	4	248	0.00	29.793 
09:50	64.8	64.8	64.8	81	58.8	2	5	248	0.00	29.793 
09:55	65.0	65.0	65.0	80	58.7	2	4	248	0.00	29.793 
10:00	65.3	65.3	65.3	80	59.0	1	3	248	0.00	29.793 
10:05	65.6	65.6	65.6	78	58.5	2	6	248	0.00	29.793 
10:10	66.0	66.0	66.0	77	58.6	1	3	248	0.00	29.793 
10:15	66.3	66.3	66.3	77	58.9	2	5	248	0.00	29.792 
10:20	66.4	66.4	66.4	76	58.6	1	3	248	0.00	29.792 
10:25	66.4	66.4	66.4	77	59.0	0	2	248	0.00	29.792 
10:30	66.4	66.4	66.4	77	59.0	1	4	248	0.00	29.798 
10:35	66.3	66.3	66.3	76	58.5	1	5	225	0.00	29.798 
10:40	66.3	66.3	66.3	77	58.9	1	2	225	0.00	29.798 
10:45	66.6	66.6	66.6	75	58.4	2	6	225	0.00	29.801 
10:50	66.8	66.8	66.8	75	58.6	2	5	270	0.00	29.801 
10:55	66.9	66.9	66.9	75	58.7	1	3	270	0.00	29.801 
11:00	66.9	66.9	66.9	75	58.7	1	3	270	0.00	29.804 
11:05	66.9	66.9	66.9	75	58.7	1	4	270	0.00	29.804 
11:10	66.9	66.9	66.9	74	58.3	3	6	292	0.00	29.804 
11:15	67.3	67.3	67.3	74	58.7	2	4	248	0.00	29.806 
11:20	67.6	67.6	67.6	73	58.6	1	4	248	0.00	29.806 
11:25	67.6	67.6	67.6	72	58.2	2	4	248	0.00	29.806 
11:30	67.8	67.8	67.8	72	58.4	2	4	248	0.00	29.805 
11:35	68.6	68.6	68.6	70	58.4	2	6	270	0.00	29.805 
11:40	68.9	68.9	68.9	68	57.9	2	5	248	0.00	29.805 
11:45	68.6	68.6	68.6	69	58.0	1	4	248	0.00	29.806 
11:50	68.3	68.3	68.3	69	57.7	1	4	248	0.00	29.806 
11:55	67.6	67.6	67.6	71	57.9	2	5	270	0.00	29.806 
12:00	67.6	67.6	67.6	72	58.2	1	3	270	0.00	29.806 
12:05	68.3	68.3	68.3	73	59.3	1	4	270	0.00	29.806 
12:10	68.6	68.6	68.6	68	57.6	3	6	270	0.00	29.806 
12:15	68.8	68.8	68.8	69	58.2	3	6	270	0.00	29.802 
12:20	68.9	68.9	68.9	66	57.1	3	5	270	0.00	29.802 
12:25	68.8	68.8	68.8	66	57.0	2	7	270	0.00	29.802 
12:30	68.8	68.8	68.8	66	57.0	1	4	270	0.00	29.798 
12:35	68.8	68.8	68.8	66	57.0	2	4	248	0.00	29.798 
12:40	69.1	69.1	69.1	66	57.3	1	3	248	0.00	29.798 
12:45	69.4	69.4	69.4	66	57.5	2	5	270	0.00	29.800 
12:50	69.6	69.6	69.6	67	58.1	1	5	248	0.00	29.800 
12:55	69.4	69.4	69.4	65	57.1	2	6	270	0.00	29.800 
13:00	69.1	69.1	69.1	65	56.8	2	5	248	0.00	29.801 
13:05	68.9	68.9	68.9	65	56.6	1	4	270	0.00	29.801 
13:10	68.6	68.6	68.6	66	56.8	1	4	248	0.00	29.801 
13:15	68.6	68.6	68.6	66	56.8	1	4	248	0.00	29.807 
13:20	68.6	68.6	68.6	66	56.8	1	3	248	0.00	29.807 
13:25	68.4	68.4	68.4	67	57.0	0	2	248	0.00	29.807 
13:30	68.4	68.4	68.4	68	57.4	0	2	248	0.00	29.804 
13:35	68.4	68.4	68.4	67	57.0	1	5	248	0.00	29.804 
13:40	68.3	68.3	68.3	68	57.3	1	3	270	0.00	29.804 
13:45	68.4	68.4	68.4	68	57.4	0	2	270	0.00	29.798 
13:50	68.4	68.4	68.4	67	57.0	1	3	292	0.00	29.798 
13:55	68.4	68.4	68.4	67	57.0	1	3	292	0.00	29.798 
14:00	68.4	68.4	68.4	66	56.6	1	3	292	0.00	29.799 
14:05	68.4	68.4	68.4	66	56.6	1	4	248	0.00	29.799 
14:10	68.3	68.3	68.3	66	56.5	1	5	248	0.00	29.799 
14:15	68.3	68.3	68.3	67	56.9	1	3	270	0.00	29.799 
14:20	68.1	68.1	68.1	65	55.9	1	4	248	0.00	29.799 
14:25	67.9	67.9	67.9	66	56.1	2	4	248	0.00	29.799 
14:30	67.9	67.9	67.9	66	56.1	1	4	248	0.00	29.798 
14:35	67.9	67.9	67.9	67	56.5	1	4	270	0.00	29.798 
14:40	67.9	67.9	67.9	68	56.9	1	3	270	0.00	29.798 
14:45	68.1	68.1	68.1	69	57.5	1	3	248	0.00	29.795 
14:50	67.9	67.9	67.9	69	57.3	1	3	248	0.00	29.795 
14:55	67.9	67.9	67.9	70	57.7	1	3	248	0.00	29.795 
15:00	67.8	67.8	67.8	72	58.4	1	3	248	0.00	29.791 
15:05	67.8	67.8	67.8	69	57.2	1	4	248	0.00	29.791 
15:10	68.1	68.1	68.1	70	57.9	0	2	248	0.00	29.791 
15:15	68.8	68.8	68.8	69	58.2	1	3	248	0.00	29.781 
15:20	68.9	68.9	68.9	66	57.1	1	4	248	0.00	29.781 
15:25	68.9	68.9	68.9	65	56.6	2	5	292	0.00	29.781 
15:30	68.8	68.8	68.8	65	56.5	1	4	292	0.00	29.779 
15:35	68.8	68.8	68.8	65	56.5	1	5	248	0.00	29.779 
15:40	68.8	68.8	68.8	65	56.5	1	3	248	0.00	29.779 
15:45	68.3	68.3	68.3	67	56.9	3	6	248	0.00	29.774 
15:50	67.4	67.4	67.4	69	56.9	3	8	270	0.00	29.774 
15:55	67.1	67.1	67.1	72	57.8	3	5	270	0.00	29.774 
16:00	67.3	67.3	67.3	72	58.0	2	5	292	0.00	29.774 
16:05	67.9	67.9	67.9	72	58.5	2	6	270	0.00	29.774 
16:10	68.1	68.1	68.1	70	57.9	2	5	270	0.00	29.774 
16:15	68.4	68.4	68.4	69	57.8	2	5	270	0.00	29.765 
16:20	68.6	68.6	68.6	70	58.4	1	4	270	0.00	29.765 
16:25	69.3	69.3	69.3	69	58.7	1	4	270	0.00	29.765 
16:30	69.4	69.4	69.4	67	58.0	2	6	270	0.00	29.761 
16:35	69.3	69.3	69.3	66	57.4	3	6	270	0.00	29.761 
16:40	69.1	69.1	69.1	65	56.8	3	6	270	0.00	29.761 
16:45	68.8	68.8	68.8	66	57.0	1	4	248	0.00	29.760 
16:50	68.8	68.8	68.8	67	57.4	2	5	270	0.00	29.760 
16:55	68.6	68.6	68.6	66	56.8	2	6	270	0.00	29.760 
17:00	68.9	68.9	68.9	65	56.6	3	7	292	0.00	29.761 
17:05	69.1	69.1	69.1	64	56.4	3	7	270	0.00	29.761 
17:10	69.3	69.3	69.3	64	56.6	2	4	248	0.00	29.761 
17:15	69.1	69.1	69.1	64	56.4	2	4	248	0.00	29.760 
17:20	68.4	68.4	68.4	65	56.2	2	5	270	0.00	29.760 
17:25	67.9	67.9	67.9	65	55.7	2	6	270	0.00	29.760 
17:30	67.8	67.8	67.8	66	56.0	3	4	270	0.00	29.760 
17:35	67.6	67.6	67.6	66	55.8	2	4	315	0.00	29.760 
17:40	67.3	67.3	67.3	66	55.5	2	6	270	0.00	29.760 
17:45	67.3	67.3	67.3	65	55.1	2	6	270	0.00	29.759 
17:50	67.3	67.3	67.3	66	55.5	1	4	270	0.00	29.759 
17:55	67.3	67.3	67.3	66	55.5	1	3	270	0.00	29.759 
18:00	67.9	67.9	67.9	64	55.3	2	5	270	0.00	29.756 
18:05	67.8	67.8	67.8	62	54.3	3	4	270	0.00	29.756 
18:10	67.3	67.3	67.3	63	54.3	3	6	270	0.00	29.756 
18:15	66.9	66.9	66.9	63	53.9	3	7	270	0.00	29.756 
18:20	66.8	66.8	66.8	63	53.8	2	6	270	0.00	29.756 
18:25	66.9	66.9	66.9	63	53.9	3	6	270	0.00	29.756 
18:30	66.6	66.6	66.6	63	53.6	3	6	270	0.00	29.760 
18:35	66.3	66.3	66.3	64	53.7	2	5	270	0.00	29.760 
18:40	66.0	66.0	66.0	65	53.9	2	5	270	0.00	29.760 
18:45	65.5	65.5	65.5	65	53.4	2	4	315	0.00	29.764 
18:50	64.7	64.7	64.7	65	52.7	3	7	270	0.00	29.764 
18:55	64.0	64.0	64.0	66	52.4	3	7	270	0.00	29.764 
19:00	63.5	63.5	63.5	67	52.3	3	5	270	0.00	29.776 
19:05	63.1	63.1	63.1	67	52.0	3	6	270	0.00	29.776 
19:10	62.7	62.7	62.7	68	52.0	3	6	270	0.00	29.776 
19:15	62.4	62.4	62.4	68	51.7	3	6	270	0.00	29.779 
19:20	62.1	62.1	62.1	69	51.8	3	6	292	0.00	29.779 
19:25	61.8	61.8	61.8	69	51.5	3	6	270	0.00	29.779 
19:30	61.3	61.3	61.3	70	51.4	3	5	270	0.00	29.783 
19:35	60.5	60.5	60.5	70	50.7	3	6	270	0.00	29.783 
19:40	59.9	59.9	59.9	71	50.5	3	6	270	0.00	29.783 
19:45	59.5	59.5	59.5	71	50.1	3	5	270	0.00	29.795 
19:50	59.0	59.0	59.0	72	50.0	3	5	270	0.00	29.795 
19:55	58.7	58.7	58.7	72	49.7	3	6	270	0.00	29.795 
20:00	58.3	58.3	58.3	73	49.7	3	5	270	0.00	29.799 
20:05	57.6	57.6	57.6	74	49.4	2	5	270	0.00	29.799 
20:10	57.3	57.3	57.3	75	49.4	2	4	270	0.00	29.799 
20:15	56.6	56.6	56.6	76	49.1	2	5	338	0.00	29.803 
20:20	56.0	56.0	56.0	77	48.9	3	5	270	0.00	29.803 
20:25	55.6	55.6	55.6	78	48.8	3	5	270	0.00	29.803 
20:30	55.1	55.1	55.1	79	48.7	2	4	270	0.00	29.814 
20:35	54.8	54.8	54.8	80	48.7	1	6	270	0.00	29.814 
20:40	54.5	54.5	54.5	81	48.8	2	4	270	0.00	29.814 
20:45	54.4	54.4	54.4	81	48.7	2	4	248	0.00	29.818 
20:50	54.4	54.4	54.4	82	49.0	2	4	248	0.00	29.818 
20:55	54.4	54.4	54.4	82	49.0	2	4	248	0.00	29.818 
21:00	54.4	54.4	54.4	83	49.3	2	4	270	0.00	29.827 
21:05	54.4	54.4	54.4	83	49.3	2	6	270	0.00	29.827 
21:10	54.1	54.1	54.1	84	49.4	2	5	270	0.00	29.827 
21:15	54.1	54.1	54.1	84	49.4	2	4	270	0.00	29.832 
21:20	53.6	53.6	53.6	84	48.9	3	7	270	0.00	29.832 
21:25	52.9	52.9	52.9	84	48.2	2	4	315	0.00	29.832 
21:30	52.6	52.6	52.6	85	48.2	1	4	315	0.00	29.843 
21:35	52.2	52.2	52.2	86	48.1	2	5	292	0.00	29.843 
21:40	52.0	52.0	52.0	86	47.9	1	3	292	0.00	29.843 
21:45	51.7	51.7	51.7	87	48.0	1	4	270	0.00	29.849 
21:50	51.7	51.7	51.7	88	48.3	1	3	292	0.00	29.849 
21:55	51.7	51.7	51.7	88	48.3	0	2	292	0.00	29.849 
22:00	51.6	51.6	51.6	88	48.2	0	2	292	0.00	29.854 
22:05	51.4	51.4	51.4	88	48.0	1	4	315	0.00	29.854 
22:10	51.1	51.1	51.1	88	47.7	1	6	315	0.00	29.854 
22:15	51.0	51.0	51.0	88	47.6	1	5	270	0.00	29.856 
22:20	50.8	50.8	50.8	88	47.4	1	4	270	0.00	29.856 
22:25	50.7	50.7	50.7	88	47.3	1	5	292	0.00	29.856 
22:30	50.4	50.4	50.4	88	47.0	1	4	270	0.00	29.865 
22:35	50.1	50.1	50.1	87	46.4	1	4	292	0.00	29.865 
22:40	49.9	49.9	49.9	87	46.2	1	3	315	0.00	29.865 
22:45	49.8	49.8	49.8	87	46.1	1	3	315	0.00	29.866 
22:50	49.8	49.8	49.8	86	45.8	1	2	315	0.00	29.866 
22:55	49.6	49.6	49.6	86	45.6	1	4	292	0.00	29.866 
23:00	49.6	49.6	49.6	86	45.6	0	2	292	0.00	29.868 
23:05	49.4	49.4	49.4	87	45.7	0	2	292	0.00	29.868 
23:10	49.1	49.1	49.1	87	45.4	1	7	315	0.00	29.868 
23:15	48.6	48.6	48.6	87	44.9	1	4	338	0.00	29.874 
23:20	48.5	48.5	48.5	86	44.5	1	4	338	0.00	29.874 
23:25	48.5	48.5	48.5	86	44.5	0	3	315	0.00	29.874 
23:30	48.3	48.3	48.3	86	44.3	1	4	338	0.00	29.880 
23:35	48.3	48.3	48.3	85	44.0	1	4	292	0.00	29.880 
23:40	48.3	48.3	48.3	85	44.0	1	4	270	0.00	29.880 
23:45	48.3	48.3	48.3	85	44.0	0	3	270	0.00	29.883 
23:50	48.2	48.2	48.2	84	43.6	1	2	315	0.00	29.883 
23:55	48.2	48.2	48.2	84	43.6	0	3	315	0.00	29.883 

CoCoRaHS
IN-AL-39
A2 Web Hosting
Creative Commons License
GoDaddy
search engine by freefind advanced

loaded 2018-11-16 23:34:26 • last modified 2010-11-18 10:43:29
Privacy PolicyDisclaimer
• wx.awcolley.com is powered by PmWiki v.2002016 •
• all content (unless otherwise noted) © 2018 A W Colley